Lauderdale, Minnesota
Current Conditions -  °F | °C
As of 4:53 AM on Saturday 25 Oct 2014 (Local Time) from KSTP Reporting Station
Clear Clear  
Wind Chill: 55°   Ceiling: Unl
Heat Index: 55°   Visibility: 10mi
Dew Point: 36°   Wind: 13mph
Humidity: 49%   Direction: 310°NW
Pressure: 29.97"   Gusts: NA
Location:  45.0123°N, 93.1559°W
Report Text: KSTP 250953Z AUTO 31011KT 10SM CLR 13/02 A2997 RMK AO2 SLP146 T01280022
Loading
Personal Weather Stations






























Interactive Weather Map
Tropical Storm Tracking
New forecast layout! Learn more

10-Day Weather Forecast

Advertisements
Track Severe Weather on mobile